An Run Da 2 — BHNX — position and weather

sailwx.info

Track history (hours):
 
Tides and Currents Weather Stations Pressure Air Temp Water Temp Dewpoint Dewpoint Depression Visibility Wind Speed Wind Dir Waves Ship Positions

An Run Da 2

Last reported at 2017-Apr-20 12:48 UTC. Time now 2017-Apr-26 07:50 UTC.
Position N 37°40' E 122°09'.

Length 147 m; draft 8.6 m.

MMSI: 413360230.

Date/timePositionNaut miles runAvg speedWind from/ knotsBaromVisibWave heightAir tempDewpointWater temp
2017-Apr-20 12:48N 37°40' E 122°09'3 8.8
2017-Apr-20 12:30N 37°41' E 122°06'5 9.3
2017-Apr-20 12:00N 37°42' E 122°01'5 9.2
2017-Apr-20 11:30N 37°44' E 121°55'4 8.6
2017-Apr-20 11:00N 37°45' E 121°50'3 6.4
2017-Apr-20 10:30N 37°46' E 121°46'4 8.8
2017-Apr-20 10:00N 37°47' E 121°41'4 8.9
2017-Apr-20 09:30N 37°48' E 121°35'4 8.9
2017-Apr-20 09:00N 37°50' E 121°30'4 9.0
2017-Apr-20 08:30N 37°52' E 121°25'5 9.1
2017-Apr-20 08:00N 37°53' E 121°20'5 9.2
2017-Apr-20 07:30N 37°55' E 121°14'5 9.3
2017-Apr-20 06:58N 37°56' E 121°08'4 9.5
2017-Apr-20 06:30N 37°57' E 121°02'5 9.7
2017-Apr-20 06:00N 37°58' E 120°56'510.1
2017-Apr-20 05:30N 37°59' E 120°50'510.5
2017-Apr-20 05:00N 38°01' E 120°44'510.7
2017-Apr-20 04:30N 38°02' E 120°37'510.5
2017-Apr-20 04:00N 38°03' E 120°31'4 8.1
2017-Apr-20 03:30N 38°03' E 120°26'2 4.1
2017-Apr-20 03:00N 38°04' E 120°23'510.2
2017-Apr-20 02:30N 38°06' E 120°17'8 9.9
2017-Apr-20 01:45N 38°10' E 120°09'  
2017-Apr-15 00:25N 38°59' E 117°60'115 2.9
2017-Apr-13 09:05N 38°11' E 120°14'110.9
2017-Apr-13 09:00N 38°10' E 120°15'811.4
2017-Apr-13 08:19N 38°06' E 120°23'411.4
2017-Apr-13 08:00N 38°05' E 120°27'611.6
2017-Apr-13 07:30N 38°03' E 120°34'612.1
2017-Apr-13 07:00N 38°02' E 120°42'612.0
2017-Apr-13 06:31N 38°01' E 120°49'611.9
2017-Apr-13 06:00N 37°59' E 120°57'711.9
2017-Apr-13 05:27N 37°58' E 121°05'612.0
2017-Apr-13 04:58N 37°56' E 121°12'1011.6
2017-Apr-13 04:08N 37°54' E 121°24'111.2
2017-Apr-13 04:00N 37°53' E 121°25'611.2
2017-Apr-13 03:30N 37°52' E 121°32'611.0
2017-Apr-13 03:00N 37°50' E 121°39'610.8
2017-Apr-13 02:30N 37°48' E 121°45'610.9
2017-Apr-13 01:56N 37°46' E 121°53'511.2
2017-Apr-13 01:30N 37°45' E 121°59'611.2
2017-Apr-13 01:00N 37°44' E 122°06'401 9.4
2017-Apr-11 06:35N 31°04' E 122°06'113.1
2017-Apr-11 06:30N 31°04' E 122°04'612.9
2017-Apr-11 06:01N 31°06' E 121°57'611.5
2017-Apr-11 05:30N 31°10' E 121°52'5 9.5
2017-Apr-11 05:01N 31°13' E 121°48'4 8.9
2017-Apr-11 04:30N 31°16' E 121°45'4 8.2
2017-Apr-11 04:00N 31°19' E 121°42'4 7.1
2017-Apr-11 03:30N 31°21' E 121°38'4 7.7
2017-Apr-11 03:01N 31°23' E 121°34'5 9.3
2017-Apr-11 02:30N 31°26' E 121°30'4 7.2
2017-Apr-11 02:00N 31°28' E 121°27'611.7
2017-Apr-11 01:30N 31°32' E 121°21'612.8
2017-Apr-11 01:00N 31°37' E 121°16'714.5
2017-Apr-11 00:30N 31°41' E 121°10'713.9
2017-Apr-11 00:00N 31°46' E 121°03'  
Track history (hours):
 
Tides and Currents Weather Stations Pressure Air Temp Water Temp Dewpoint Dewpoint Depression Visibility Wind Speed Wind Dir Waves Ship Positions

An Run Da 2

Last reported at 2017-Apr-20 12:48 UTC. Time now 2017-Apr-26 07:50 UTC.
Position N 37°40' E 122°09'.

Length 147 m; draft 8.6 m.

MMSI: 413360230.

Date/timePositionNaut miles runAvg speedWind from/ knotsBaromVisibWave heightAir tempDewpointWater temp
2017-Apr-20 12:48N 37°40' E 122°09'3 8.8
2017-Apr-20 12:30N 37°41' E 122°06'5 9.3
2017-Apr-20 12:00N 37°42' E 122°01'5 9.2
2017-Apr-20 11:30N 37°44' E 121°55'4 8.6
2017-Apr-20 11:00N 37°45' E 121°50'3 6.4
2017-Apr-20 10:30N 37°46' E 121°46'4 8.8
2017-Apr-20 10:00N 37°47' E 121°41'4 8.9
2017-Apr-20 09:30N 37°48' E 121°35'4 8.9
2017-Apr-20 09:00N 37°50' E 121°30'4 9.0
2017-Apr-20 08:30N 37°52' E 121°25'5 9.1
2017-Apr-20 08:00N 37°53' E 121°20'5 9.2
2017-Apr-20 07:30N 37°55' E 121°14'5 9.3
2017-Apr-20 06:58N 37°56' E 121°08'4 9.5
2017-Apr-20 06:30N 37°57' E 121°02'5 9.7
2017-Apr-20 06:00N 37°58' E 120°56'510.1
2017-Apr-20 05:30N 37°59' E 120°50'510.5
2017-Apr-20 05:00N 38°01' E 120°44'510.7
2017-Apr-20 04:30N 38°02' E 120°37'510.5
2017-Apr-20 04:00N 38°03' E 120°31'4 8.1
2017-Apr-20 03:30N 38°03' E 120°26'2 4.1
2017-Apr-20 03:00N 38°04' E 120°23'510.2
2017-Apr-20 02:30N 38°06' E 120°17'8 9.9
2017-Apr-20 01:45N 38°10' E 120°09'  
2017-Apr-15 00:25N 38°59' E 117°60'115 2.9
2017-Apr-13 09:05N 38°11' E 120°14'110.9
2017-Apr-13 09:00N 38°10' E 120°15'811.4
2017-Apr-13 08:19N 38°06' E 120°23'411.4
2017-Apr-13 08:00N 38°05' E 120°27'611.6
2017-Apr-13 07:30N 38°03' E 120°34'612.1
2017-Apr-13 07:00N 38°02' E 120°42'612.0
2017-Apr-13 06:31N 38°01' E 120°49'611.9
2017-Apr-13 06:00N 37°59' E 120°57'711.9
2017-Apr-13 05:27N 37°58' E 121°05'612.0
2017-Apr-13 04:58N 37°56' E 121°12'1011.6
2017-Apr-13 04:08N 37°54' E 121°24'111.2
2017-Apr-13 04:00N 37°53' E 121°25'611.2
2017-Apr-13 03:30N 37°52' E 121°32'611.0
2017-Apr-13 03:00N 37°50' E 121°39'610.8
2017-Apr-13 02:30N 37°48' E 121°45'610.9
2017-Apr-13 01:56N 37°46' E 121°53'511.2
2017-Apr-13 01:30N 37°45' E 121°59'611.2
2017-Apr-13 01:00N 37°44' E 122°06'401 9.4
2017-Apr-11 06:35N 31°04' E 122°06'113.1
2017-Apr-11 06:30N 31°04' E 122°04'612.9
2017-Apr-11 06:01N 31°06' E 121°57'611.5
2017-Apr-11 05:30N 31°10' E 121°52'5 9.5
2017-Apr-11 05:01N 31°13' E 121°48'4 8.9
2017-Apr-11 04:30N 31°16' E 121°45'4 8.2
2017-Apr-11 04:00N 31°19' E 121°42'4 7.1
2017-Apr-11 03:30N 31°21' E 121°38'4 7.7
2017-Apr-11 03:01N 31°23' E 121°34'5 9.3
2017-Apr-11 02:30N 31°26' E 121°30'4 7.2
2017-Apr-11 02:00N 31°28' E 121°27'611.7
2017-Apr-11 01:30N 31°32' E 121°21'612.8
2017-Apr-11 01:00N 31°37' E 121°16'714.5
2017-Apr-11 00:30N 31°41' E 121°10'713.9
2017-Apr-11 00:00N 31°46' E 121°03'  

Dump ship's entire track history